createdAt,value
2023-03-02T00:01:14.969Z,12.93
2023-03-02T00:04:23.744Z,13.55
2023-03-02T00:07:30.437Z,13.80
2023-03-02T00:10:32.724Z,13.93
2023-03-02T00:13:36.232Z,13.53
2023-03-02T00:16:40.290Z,12.77
2023-03-02T00:19:42.751Z,14.15
2023-03-02T00:22:45.915Z,14.80
2023-03-02T00:25:48.292Z,14.75
2023-03-02T00:28:50.680Z,13.53
2023-03-02T00:31:54.058Z,13.10
2023-03-02T00:34:56.453Z,14.20
2023-03-02T00:37:58.748Z,14.15
2023-03-02T00:41:01.022Z,14.52
2023-03-02T00:44:04.246Z,14.53
2023-03-02T00:47:07.018Z,15.90
2023-03-02T00:50:10.228Z,15.65
2023-03-02T00:53:12.470Z,15.70
2023-03-02T00:56:14.731Z,15.18
2023-03-02T00:59:28.749Z,15.27
2023-03-02T01:02:44.508Z,16.80
2023-03-02T01:05:55.335Z,17.67
2023-03-02T01:08:57.609Z,17.65
2023-03-02T01:12:00.046Z,16.98
2023-03-02T01:15:03.292Z,16.40
2023-03-02T01:18:05.658Z,16.50
2023-03-02T01:21:11.373Z,16.10
2023-03-02T01:24:13.703Z,15.43
2023-03-02T01:27:16.257Z,16.15
2023-03-02T01:30:18.702Z,15.97
2023-03-02T01:33:21.739Z,14.18
2023-03-02T01:36:24.463Z,16.67
2023-03-02T01:39:26.813Z,16.50
2023-03-02T01:42:35.234Z,15.57
2023-03-02T01:45:53.826Z,16.60
2023-03-02T01:49:12.657Z,15.25
2023-03-02T01:52:29.871Z,16.08
2023-03-02T01:55:33.647Z,14.73
2023-03-02T01:58:37.147Z,15.13
2023-03-02T02:01:43.428Z,15.77
2023-03-02T02:04:46.668Z,16.45
2023-03-02T02:07:49.189Z,15.02
2023-03-02T02:10:53.256Z,15.73
2023-03-02T02:14:00.228Z,16.23
2023-03-02T02:17:02.637Z,15.73
2023-03-02T02:20:27.889Z,14.88
2023-03-02T02:24:01.087Z,14.18
2023-03-02T02:27:03.612Z,14.27
2023-03-02T02:30:06.874Z,14.38
2023-03-02T02:33:13.985Z,14.30
2023-03-02T02:36:22.692Z,14.88
2023-03-02T02:39:30.157Z,14.32
2023-03-02T02:42:35.911Z,13.70
2023-03-02T02:45:38.440Z,13.93
2023-03-02T02:48:40.878Z,14.30
2023-03-02T02:51:43.160Z,13.77
2023-03-02T02:54:49.425Z,13.45
2023-03-02T02:57:54.515Z,13.05
2023-03-02T03:00:56.950Z,13.50
2023-03-02T03:04:03.528Z,12.33
2023-03-02T03:07:06.883Z,12.00
2023-03-02T03:10:12.682Z,12.27
2023-03-02T03:13:15.215Z,12.27
2023-03-02T03:16:17.991Z,12.75
2023-03-02T03:19:23.664Z,11.53
2023-03-02T03:22:26.757Z,12.13
2023-03-02T03:25:29.081Z,12.02
2023-03-02T03:28:32.797Z,11.27
2023-03-02T03:31:36.155Z,12.00
2023-03-02T03:34:40.915Z,12.47
2023-03-02T03:37:49.861Z,11.63
2023-03-02T03:40:53.960Z,11.32
2023-03-02T03:43:56.440Z,14.60
2023-03-02T03:46:59.804Z,11.23
2023-03-02T03:50:02.484Z,10.90
2023-03-02T03:53:05.552Z,10.82
2023-03-02T03:56:08.377Z,11.75
2023-03-02T03:59:13.840Z,11.93
2023-03-02T04:02:21.644Z,12.63
2023-03-02T04:05:24.357Z,11.10
2023-03-02T04:08:28.855Z,11.57
2023-03-02T04:11:33.601Z,11.73
2023-03-02T04:14:36.338Z,11.27
2023-03-02T04:17:38.915Z,10.93
2023-03-02T04:20:44.463Z,11.50
2023-03-02T04:23:48.348Z,10.57
2023-03-02T04:26:51.501Z,10.98
2023-03-02T04:29:56.491Z,10.43
2023-03-02T04:32:59.376Z,10.50
2023-03-02T04:36:04.122Z,10.53
2023-03-02T04:39:08.251Z,9.40
2023-03-02T04:42:10.555Z,10.38
2023-03-02T04:45:13.064Z,9.55
2023-03-02T04:48:15.372Z,10.30
2023-03-02T04:51:24.180Z,10.63
2023-03-02T04:54:27.485Z,10.70
2023-03-02T04:57:29.826Z,9.93
2023-03-02T05:00:34.268Z,10.80
2023-03-02T05:03:36.578Z,11.30
2023-03-02T05:06:39.337Z,11.17
2023-03-02T05:09:41.744Z,12.80
2023-03-02T05:13:02.476Z,11.80
2023-03-02T05:16:05.311Z,11.82
2023-03-02T05:19:09.658Z,12.52
2023-03-02T05:22:11.955Z,12.53
2023-03-02T05:25:14.610Z,15.73
2023-03-02T05:28:17.931Z,13.07
2023-03-02T05:31:29.900Z,13.35
2023-03-02T05:34:32.247Z,13.25
2023-03-02T05:37:34.591Z,13.27
2023-03-02T05:40:36.950Z,15.45
2023-03-02T05:43:39.564Z,14.48
2023-03-02T05:46:41.991Z,13.43
2023-03-02T05:50:47.818Z,13.00
2023-03-02T05:53:50.240Z,12.00
2023-03-02T05:56:56.038Z,11.85
2023-03-02T05:59:58.318Z,11.88
2023-03-02T06:03:00.756Z,11.32
2023-03-02T06:06:03.180Z,11.95
2023-03-02T06:09:05.452Z,11.17
2023-03-02T06:12:08.767Z,11.38
2023-03-02T06:15:11.551Z,10.35
2023-03-02T06:18:14.196Z,11.40
2023-03-02T06:21:16.861Z,10.90
2023-03-02T06:24:19.251Z,9.77
2023-03-02T06:27:22.509Z,11.15
2023-03-02T06:30:25.882Z,10.57
2023-03-02T06:33:28.242Z,9.98
2023-03-02T06:36:30.832Z,11.18
2023-03-02T06:39:34.267Z,12.03
2023-03-02T06:42:37.915Z,12.20
2023-03-02T06:45:40.485Z,14.55
2023-03-02T06:48:43.177Z,12.18
2023-03-02T06:51:45.506Z,13.13
2023-03-02T06:54:47.798Z,10.43
2023-03-02T06:57:50.380Z,9.02
2023-03-02T07:00:52.700Z,8.52
2023-03-02T07:03:55.088Z,9.60
2023-03-02T07:06:57.442Z,8.60
2023-03-02T07:09:59.747Z,8.57
2023-03-02T07:13:02.129Z,9.20
2023-03-02T07:16:09.718Z,9.23
2023-03-02T07:19:13.897Z,9.20
2023-03-02T07:22:16.243Z,8.73
2023-03-02T07:25:19.051Z,9.57
2023-03-02T07:28:24.172Z,8.43
2023-03-02T07:31:27.095Z,8.25
2023-03-02T07:34:29.637Z,7.43
2023-03-02T07:37:32.031Z,8.13
2023-03-02T07:40:34.838Z,7.63
2023-03-02T07:43:37.702Z,7.80
2023-03-02T07:47:17.763Z,8.07
2023-03-02T07:50:44.067Z,7.43
2023-03-02T07:54:09.122Z,7.57
2023-03-02T07:57:32.084Z,7.70
2023-03-02T08:00:42.707Z,7.97
2023-03-02T08:03:45.251Z,7.78
2023-03-02T08:06:50.615Z,7.47
2023-03-02T08:10:16.934Z,7.97
2023-03-02T08:13:23.079Z,6.73
2023-03-02T08:16:26.501Z,7.72
2023-03-02T08:19:28.855Z,7.57
2023-03-02T08:22:31.178Z,7.20
2023-03-02T08:25:33.515Z,6.95
2023-03-02T08:28:35.812Z,4.20
2023-03-02T08:31:38.406Z,5.43
2023-03-02T08:34:41.465Z,5.38
2023-03-02T08:37:43.912Z,4.00
2023-03-02T08:40:47.675Z,3.67
2023-03-02T08:43:50.248Z,4.40
2023-03-02T08:46:52.688Z,3.85
2023-03-02T08:49:55.255Z,3.42
2023-03-02T08:52:57.617Z,4.30
2023-03-02T08:56:00.002Z,3.72
2023-03-02T08:59:08.028Z,3.70
2023-03-02T09:02:12.303Z,3.50
2023-03-02T09:05:14.938Z,3.70
2023-03-02T09:08:19.447Z,3.33
2023-03-02T09:11:21.924Z,3.75
2023-03-02T09:14:25.014Z,3.60
2023-03-02T09:17:27.422Z,3.70
2023-03-02T09:20:30.736Z,3.50
2023-03-02T09:23:36.228Z,3.58
2023-03-02T09:26:41.066Z,3.88
2023-03-02T09:29:43.585Z,3.60
2023-03-02T09:32:46.214Z,4.03
2023-03-02T09:35:50.383Z,3.90
2023-03-02T09:39:06.886Z,4.32
2023-03-02T09:42:44.265Z,3.92
2023-03-02T09:45:50.589Z,3.80
2023-03-02T09:49:29.779Z,4.50
2023-03-02T09:58:03.317Z,4.05
2023-03-02T10:01:16.142Z,4.60
2023-03-02T10:04:39.917Z,3.80
2023-03-02T10:11:40.827Z,4.18
2023-03-02T10:19:10.258Z,4.88
2023-03-02T10:22:57.365Z,4.47
2023-03-02T10:26:39.641Z,4.95
2023-03-02T10:29:53.928Z,4.80
2023-03-02T10:33:30.719Z,4.70
2023-03-02T10:36:58.964Z,5.20
2023-03-02T10:40:01.545Z,4.97
2023-03-02T10:43:44.490Z,5.37
2023-03-02T10:47:03.900Z,5.43
2023-03-02T10:50:21.696Z,5.28
2023-03-02T10:53:31.364Z,5.03
2023-03-02T10:56:38.679Z,4.70
2023-03-02T10:59:49.186Z,5.20
2023-03-02T11:03:05.912Z,4.45
2023-03-02T11:06:33.882Z,5.20
2023-03-02T11:09:47.608Z,5.15
2023-03-02T11:12:55.684Z,4.57
2023-03-02T11:16:04.621Z,4.83
2023-03-02T11:19:34.294Z,5.53
2023-03-02T11:22:56.570Z,5.20
2023-03-02T11:26:02.839Z,6.05
2023-03-02T11:29:23.181Z,6.37
2023-03-02T11:32:36.840Z,5.63
2023-03-02T11:35:45.313Z,5.05
2023-03-02T11:39:10.982Z,5.10
2023-03-02T11:42:26.053Z,5.05
2023-03-02T11:45:31.940Z,5.07
2023-03-02T11:48:41.585Z,4.53
2023-03-02T11:51:58.301Z,4.90
2023-03-02T11:55:06.152Z,5.43
2023-03-02T11:58:38.001Z,4.82
2023-03-02T12:01:40.818Z,4.20
2023-03-02T12:04:50.841Z,4.23
2023-03-02T12:08:06.896Z,3.83
2023-03-02T12:11:18.671Z,3.30
2023-03-02T12:14:39.066Z,4.40
2023-03-02T12:17:43.640Z,3.93
2023-03-02T12:20:46.421Z,4.70
2023-03-02T12:23:51.406Z,5.00
2023-03-02T12:27:18.766Z,4.35
2023-03-02T12:30:26.657Z,4.32
2023-03-02T12:33:31.179Z,4.30
2023-03-02T12:36:41.625Z,4.77
2023-03-02T12:40:05.187Z,4.25
2023-03-02T12:43:30.933Z,4.43
2023-03-02T12:46:50.614Z,4.47
2023-03-02T12:55:59.899Z,4.00
2023-03-02T12:59:03.515Z,5.55
2023-03-02T13:02:15.194Z,4.72
2023-03-02T13:05:24.256Z,4.78
2023-03-02T13:08:28.944Z,4.50
2023-03-02T13:11:35.393Z,4.97
2023-03-02T13:14:46.325Z,4.30
2023-03-02T13:17:59.983Z,5.60
2023-03-02T13:21:04.854Z,4.28
2023-03-02T13:24:36.054Z,5.50
2023-03-02T13:27:39.014Z,4.53
2023-03-02T13:30:47.788Z,4.40
2023-03-02T13:33:57.635Z,4.95
2023-03-02T13:37:04.589Z,4.78
2023-03-02T13:40:31.529Z,4.50
2023-03-02T13:43:39.225Z,4.57
2023-03-02T13:46:42.394Z,4.55
2023-03-02T13:49:44.876Z,4.63
2023-03-02T13:52:49.247Z,4.45
2023-03-02T13:55:54.512Z,4.47
2023-03-02T13:58:58.252Z,4.30
2023-03-02T14:02:15.485Z,3.75
2023-03-02T14:09:00.870Z,4.40
2023-03-02T14:12:05.941Z,4.07
2023-03-02T14:15:11.349Z,4.07
2023-03-02T14:18:47.187Z,3.50
2023-03-02T14:21:49.867Z,3.60
2023-03-02T14:24:53.698Z,3.22
2023-03-02T14:27:58.205Z,2.90
2023-03-02T14:31:01.972Z,3.50
2023-03-02T14:34:04.318Z,3.50
2023-03-02T14:37:34.448Z,3.67
2023-03-02T14:44:03.641Z,3.33
2023-03-02T14:47:06.036Z,4.17
2023-03-02T14:50:09.842Z,3.78
2023-03-02T14:53:23.226Z,4.63
2023-03-02T14:59:43.121Z,4.07
2023-03-02T15:02:46.145Z,3.80
2023-03-02T15:06:00.917Z,3.35
2023-03-02T15:09:06.625Z,2.92
2023-03-02T15:12:17.206Z,3.58
2023-03-02T15:16:43.439Z,4.67
2023-03-02T15:20:16.135Z,3.87
2023-03-02T15:23:18.777Z,3.70
2023-03-02T15:26:21.203Z,3.65
2023-03-02T15:29:23.494Z,4.15
2023-03-02T15:32:26.704Z,3.63
2023-03-02T15:35:29.500Z,4.00
2023-03-02T15:38:32.295Z,3.50
2023-03-02T15:41:34.960Z,4.88
2023-03-02T15:44:37.440Z,3.97
2023-03-02T15:47:39.730Z,3.27
2023-03-02T15:50:42.369Z,3.67
2023-03-02T15:53:44.825Z,3.58
2023-03-02T15:56:53.397Z,3.90
2023-03-02T15:59:55.925Z,3.65
2023-03-02T16:02:58.206Z,4.13
2023-03-02T16:06:00.918Z,3.87
2023-03-02T16:09:03.821Z,3.90
2023-03-02T16:12:07.125Z,3.88
2023-03-02T16:15:09.785Z,4.47
2023-03-02T16:18:12.774Z,4.63
2023-03-02T16:21:15.088Z,4.23
2023-03-02T16:24:17.527Z,4.90
2023-03-02T16:27:19.839Z,4.70
2023-03-02T16:30:23.509Z,5.05
2023-03-02T16:33:26.171Z,5.30
2023-03-02T16:36:28.481Z,5.60
2023-03-02T16:39:31.136Z,6.05
2023-03-02T16:42:33.493Z,6.07
2023-03-02T16:45:36.010Z,5.68
2023-03-02T16:48:38.359Z,5.93
2023-03-02T16:51:41.544Z,7.67
2023-03-02T16:54:43.932Z,8.20
2023-03-02T16:57:46.903Z,8.77
2023-03-02T17:00:49.878Z,8.27
2023-03-02T17:03:52.480Z,7.97
2023-03-02T17:07:02.199Z,8.27
2023-03-02T17:10:06.396Z,8.18
2023-03-02T17:13:09.569Z,9.35
2023-03-02T17:16:12.642Z,8.38
2023-03-02T17:19:15.087Z,10.50
2023-03-02T17:22:17.530Z,10.50
2023-03-02T17:25:20.056Z,10.57
2023-03-02T17:28:22.725Z,10.52
2023-03-02T17:31:25.207Z,11.05
2023-03-02T17:34:31.355Z,11.73
2023-03-02T17:37:33.938Z,10.70
2023-03-02T17:40:36.317Z,13.10
2023-03-02T17:43:41.254Z,12.27
2023-03-02T17:46:45.657Z,12.02
2023-03-02T17:49:48.017Z,12.87
2023-03-02T17:52:50.520Z,12.63
2023-03-02T17:55:52.996Z,12.48
2023-03-02T17:58:57.808Z,13.40
2023-03-02T18:02:00.652Z,13.73
2023-03-02T18:05:03.767Z,13.33
2023-03-02T18:08:06.144Z,15.53
2023-03-02T18:11:08.639Z,15.52
2023-03-02T18:14:17.442Z,15.50
2023-03-02T18:17:20.852Z,15.57
2023-03-02T18:20:23.240Z,15.87
2023-03-02T18:23:25.486Z,16.57
2023-03-02T18:26:27.944Z,15.98
2023-03-02T18:29:30.621Z,16.50
2023-03-02T18:32:33.008Z,16.95
2023-03-02T18:35:35.563Z,18.67
2023-03-02T18:38:38.372Z,17.47
2023-03-02T18:41:42.002Z,17.70
2023-03-02T18:44:44.464Z,16.95
2023-03-02T18:47:48.080Z,17.67
2023-03-02T18:50:50.756Z,17.60
2023-03-02T18:53:53.964Z,17.40
2023-03-02T18:56:56.276Z,19.50
2023-03-02T18:59:58.575Z,18.48
2023-03-02T19:03:01.142Z,17.02
2023-03-02T19:06:04.260Z,17.07
2023-03-02T19:09:06.630Z,17.73
2023-03-02T19:12:09.060Z,17.85
2023-03-02T19:15:15.022Z,17.88
2023-03-02T19:18:19.969Z,19.10
2023-03-02T19:21:22.320Z,17.90
2023-03-02T19:24:24.667Z,17.50
2023-03-02T19:27:27.080Z,17.92
2023-03-02T19:30:29.370Z,17.60
2023-03-02T19:33:31.792Z,18.05
2023-03-02T19:36:34.049Z,19.77
2023-03-02T19:39:36.334Z,20.67
2023-03-02T19:42:39.723Z,19.13
2023-03-02T19:45:42.140Z,19.45
2023-03-02T19:48:44.750Z,20.80
2023-03-02T19:51:47.048Z,20.60
2023-03-02T19:54:50.861Z,21.70
2023-03-02T19:57:59.568Z,22.00
2023-03-02T20:01:03.866Z,22.90
2023-03-02T20:04:06.912Z,22.73
2023-03-02T20:07:09.564Z,22.83
2023-03-02T20:10:26.311Z,24.60
2023-03-02T20:13:29.329Z,23.65
2023-03-02T20:16:33.328Z,23.48
2023-03-02T20:19:35.824Z,24.17
2023-03-02T20:22:38.062Z,23.43
2023-03-02T20:25:40.970Z,22.20
2023-03-02T20:28:43.352Z,22.25
2023-03-02T20:31:45.693Z,21.40
2023-03-02T20:34:48.301Z,21.75
2023-03-02T20:37:50.881Z,21.17
2023-03-02T20:40:53.450Z,21.60
2023-03-02T20:43:56.080Z,21.67
2023-03-02T20:47:00.987Z,22.33
2023-03-02T20:50:07.421Z,21.73
2023-03-02T20:53:10.391Z,20.80
2023-03-02T20:56:18.102Z,22.43
2023-03-02T20:59:21.432Z,21.20
2023-03-02T21:02:23.897Z,21.15
2023-03-02T21:05:27.744Z,22.25
2023-03-02T21:08:34.115Z,22.20
2023-03-02T21:11:36.810Z,22.77
2023-03-02T21:14:40.392Z,22.80
2023-03-02T21:17:42.787Z,22.98
2023-03-02T21:20:45.360Z,22.75
2023-03-02T21:23:48.052Z,23.37
2023-03-02T21:26:53.673Z,23.13
2023-03-02T21:29:56.555Z,23.23
2023-03-02T21:32:58.910Z,24.10
2023-03-02T21:36:01.582Z,23.73
2023-03-02T21:39:05.171Z,22.20
2023-03-02T21:42:07.728Z,23.13
2023-03-02T21:45:11.710Z,22.45
2023-03-02T21:48:15.033Z,22.27
2023-03-02T21:51:18.201Z,21.40
2023-03-02T21:54:20.476Z,23.37
2023-03-02T21:57:22.810Z,20.83
2023-03-02T22:00:28.024Z,21.63
2023-03-02T22:03:30.319Z,21.42
2023-03-02T22:06:34.093Z,22.05
2023-03-02T22:09:36.428Z,21.93
2023-03-02T22:12:38.820Z,19.80
2023-03-02T22:15:41.380Z,20.73
2023-03-02T22:18:45.173Z,19.63
2023-03-02T22:21:48.701Z,19.95
2023-03-02T22:24:51.917Z,20.93
2023-03-02T22:27:54.268Z,19.63
2023-03-02T22:30:58.881Z,19.30
2023-03-02T22:34:01.466Z,19.02
2023-03-02T22:37:12.064Z,18.27
2023-03-02T22:40:38.204Z,18.37
2023-03-02T22:43:40.671Z,18.00
2023-03-02T22:46:43.108Z,19.35
2023-03-02T22:49:46.507Z,19.38
2023-03-02T22:52:49.105Z,19.80
2023-03-02T22:56:37.872Z,19.00
2023-03-02T22:59:40.350Z,19.53
2023-03-02T23:02:45.325Z,19.58
2023-03-02T23:05:51.726Z,21.15
2023-03-02T23:08:56.890Z,21.33
2023-03-02T23:12:02.575Z,23.30
2023-03-02T23:15:17.357Z,21.47
2023-03-02T23:18:19.590Z,20.30
2023-03-02T23:21:28.620Z,20.60
2023-03-02T23:24:30.998Z,19.73
2023-03-02T23:27:33.353Z,20.60
2023-03-02T23:30:35.668Z,20.87
2023-03-02T23:33:38.084Z,20.98
2023-03-02T23:36:40.482Z,20.33
2023-03-02T23:39:45.104Z,21.23
2023-03-02T23:42:49.434Z,21.77
2023-03-02T23:45:51.758Z,20.10
2023-03-02T23:48:56.184Z,20.67
2023-03-02T23:51:58.744Z,20.52
2023-03-02T23:55:00.988Z,21.20
2023-03-02T23:58:03.768Z,22.00
